sensor_id;sensor_type;location;lat;lon;timestamp;P1;durP1;ratioP1;P2;durP2;ratioP2
46757;SDS011;32509;47.750;-3.396;2023-04-28T00:01:51;5.90;;;4.15;;
46757;SDS011;32509;47.750;-3.396;2023-04-28T00:04:16;7.35;;;4.90;;
46757;SDS011;32509;47.750;-3.396;2023-04-28T00:06:42;4.60;;;4.20;;
46757;SDS011;32509;47.750;-3.396;2023-04-28T00:09:08;10.52;;;5.20;;
46757;SDS011;32509;47.750;-3.396;2023-04-28T00:11:35;5.63;;;4.20;;
46757;SDS011;32509;47.750;-3.396;2023-04-28T00:14:02;5.57;;;4.47;;
46757;SDS011;32509;47.750;-3.396;2023-04-28T00:16:28;9.68;;;5.03;;
46757;SDS011;32509;47.750;-3.396;2023-04-28T00:18:54;5.32;;;4.10;;
46757;SDS011;32509;47.750;-3.396;2023-04-28T00:21:20;10.35;;;5.10;;
46757;SDS011;32509;47.750;-3.396;2023-04-28T00:23:46;7.63;;;5.25;;
46757;SDS011;32509;47.750;-3.396;2023-04-28T00:26:12;11.57;;;4.55;;
46757;SDS011;32509;47.750;-3.396;2023-04-28T00:28:38;7.53;;;3.75;;
46757;SDS011;32509;47.750;-3.396;2023-04-28T00:31:08;8.27;;;4.78;;
46757;SDS011;32509;47.750;-3.396;2023-04-28T00:33:38;7.70;;;5.28;;
46757;SDS011;32509;47.750;-3.396;2023-04-28T00:36:05;4.82;;;4.30;;
46757;SDS011;32509;47.750;-3.396;2023-04-28T00:38:31;11.85;;;4.47;;
46757;SDS011;32509;47.750;-3.396;2023-04-28T00:40:57;8.25;;;4.78;;
46757;SDS011;32509;47.750;-3.396;2023-04-28T00:43:22;8.88;;;4.47;;
46757;SDS011;32509;47.750;-3.396;2023-04-28T00:45:48;11.77;;;5.32;;
46757;SDS011;32509;47.750;-3.396;2023-04-28T00:48:14;6.97;;;5.28;;
46757;SDS011;32509;47.750;-3.396;2023-04-28T00:50:41;13.52;;;5.57;;
46757;SDS011;32509;47.750;-3.396;2023-04-28T00:53:11;5.03;;;4.35;;
46757;SDS011;32509;47.750;-3.396;2023-04-28T00:55:38;5.97;;;3.78;;
46757;SDS011;32509;47.750;-3.396;2023-04-28T00:58:04;15.55;;;5.53;;
46757;SDS011;32509;47.750;-3.396;2023-04-28T01:00:30;4.53;;;4.13;;
46757;SDS011;32509;47.750;-3.396;2023-04-28T01:02:56;8.55;;;3.63;;
46757;SDS011;32509;47.750;-3.396;2023-04-28T01:05:26;8.65;;;4.28;;
46757;SDS011;32509;47.750;-3.396;2023-04-28T01:07:53;4.38;;;3.53;;
46757;SDS011;32509;47.750;-3.396;2023-04-28T01:10:19;5.30;;;3.42;;
46757;SDS011;32509;47.750;-3.396;2023-04-28T01:12:45;5.45;;;2.95;;
46757;SDS011;32509;47.750;-3.396;2023-04-28T01:15:17;3.75;;;3.03;;
46757;SDS011;32509;47.750;-3.396;2023-04-28T01:17:44;3.33;;;2.75;;
46757;SDS011;32509;47.750;-3.396;2023-04-28T01:20:11;3.75;;;2.47;;
46757;SDS011;32509;47.750;-3.396;2023-04-28T01:22:38;4.97;;;2.95;;
46757;SDS011;32509;47.750;-3.396;2023-04-28T01:25:04;3.65;;;2.60;;
46757;SDS011;32509;47.750;-3.396;2023-04-28T01:27:30;4.45;;;3.30;;
46757;SDS011;32509;47.750;-3.396;2023-04-28T01:29:56;6.45;;;2.70;;
46757;SDS011;32509;47.750;-3.396;2023-04-28T01:32:22;5.57;;;2.38;;
46757;SDS011;32509;47.750;-3.396;2023-04-28T01:34:48;3.60;;;2.70;;
46757;SDS011;32509;47.750;-3.396;2023-04-28T01:37:14;2.58;;;2.38;;
46757;SDS011;32509;47.750;-3.396;2023-04-28T01:39:40;5.88;;;2.88;;
46757;SDS011;32509;47.750;-3.396;2023-04-28T01:42:05;3.60;;;2.40;;
46757;SDS011;32509;47.750;-3.396;2023-04-28T01:44:31;2.72;;;2.33;;
46757;SDS011;32509;47.750;-3.396;2023-04-28T01:46:57;5.00;;;3.35;;
46757;SDS011;32509;47.750;-3.396;2023-04-28T01:49:23;3.25;;;2.30;;
46757;SDS011;32509;47.750;-3.396;2023-04-28T01:51:49;3.35;;;2.45;;
46757;SDS011;32509;47.750;-3.396;2023-04-28T01:54:15;3.10;;;2.13;;
46757;SDS011;32509;47.750;-3.396;2023-04-28T01:56:40;2.35;;;1.73;;
46757;SDS011;32509;47.750;-3.396;2023-04-28T01:59:06;3.28;;;2.33;;
46757;SDS011;32509;47.750;-3.396;2023-04-28T02:01:32;2.53;;;2.13;;
46757;SDS011;32509;47.750;-3.396;2023-04-28T02:03:57;2.10;;;2.00;;
46757;SDS011;32509;47.750;-3.396;2023-04-28T02:06:23;2.10;;;1.90;;
46757;SDS011;32509;47.750;-3.396;2023-04-28T02:08:49;3.58;;;2.30;;
46757;SDS011;32509;47.750;-3.396;2023-04-28T02:11:15;2.95;;;2.30;;
46757;SDS011;32509;47.750;-3.396;2023-04-28T02:13:40;3.67;;;2.20;;
46757;SDS011;32509;47.750;-3.396;2023-04-28T02:16:06;3.10;;;1.77;;
46757;SDS011;32509;47.750;-3.396;2023-04-28T02:18:32;2.58;;;2.22;;
46757;SDS011;32509;47.750;-3.396;2023-04-28T02:21:09;3.08;;;1.92;;
46757;SDS011;32509;47.750;-3.396;2023-04-28T02:23:36;2.90;;;1.75;;
46757;SDS011;32509;47.750;-3.396;2023-04-28T02:26:02;6.28;;;2.10;;
46757;SDS011;32509;47.750;-3.396;2023-04-28T02:28:28;1.98;;;1.50;;
46757;SDS011;32509;47.750;-3.396;2023-04-28T02:31:04;4.45;;;1.50;;
46757;SDS011;32509;47.750;-3.396;2023-04-28T02:33:34;2.33;;;1.50;;
46757;SDS011;32509;47.750;-3.396;2023-04-28T02:36:01;2.15;;;1.15;;
46757;SDS011;32509;47.750;-3.396;2023-04-28T02:38:28;1.75;;;1.63;;
46757;SDS011;32509;47.750;-3.396;2023-04-28T02:41:01;1.95;;;1.50;;
46757;SDS011;32509;47.750;-3.396;2023-04-28T02:43:33;4.43;;;1.90;;
46757;SDS011;32509;47.750;-3.396;2023-04-28T02:46:00;3.47;;;2.10;;
46757;SDS011;32509;47.750;-3.396;2023-04-28T02:48:28;2.55;;;1.95;;
46757;SDS011;32509;47.750;-3.396;2023-04-28T02:50:54;5.88;;;2.58;;
46757;SDS011;32509;47.750;-3.396;2023-04-28T02:53:20;3.35;;;3.08;;
46757;SDS011;32509;47.750;-3.396;2023-04-28T02:55:47;3.22;;;2.88;;
46757;SDS011;32509;47.750;-3.396;2023-04-28T02:58:13;3.80;;;3.20;;
46757;SDS011;32509;47.750;-3.396;2023-04-28T03:00:39;3.95;;;2.92;;
46757;SDS011;32509;47.750;-3.396;2023-04-28T03:03:05;4.68;;;2.70;;
46757;SDS011;32509;47.750;-3.396;2023-04-28T03:05:31;3.20;;;2.80;;
46757;SDS011;32509;47.750;-3.396;2023-04-28T03:07:57;2.85;;;2.28;;
46757;SDS011;32509;47.750;-3.396;2023-04-28T03:10:23;2.80;;;2.60;;
46757;SDS011;32509;47.750;-3.396;2023-04-28T03:12:49;4.03;;;3.45;;
46757;SDS011;32509;47.750;-3.396;2023-04-28T03:15:14;2.88;;;2.58;;
46757;SDS011;32509;47.750;-3.396;2023-04-28T03:17:40;4.70;;;3.47;;
46757;SDS011;32509;47.750;-3.396;2023-04-28T03:20:07;3.28;;;2.97;;
46757;SDS011;32509;47.750;-3.396;2023-04-28T03:22:34;3.72;;;2.75;;
46757;SDS011;32509;47.750;-3.396;2023-04-28T03:25:00;3.10;;;2.80;;
46757;SDS011;32509;47.750;-3.396;2023-04-28T03:27:25;3.45;;;3.22;;
46757;SDS011;32509;47.750;-3.396;2023-04-28T03:29:51;5.38;;;3.58;;
46757;SDS011;32509;47.750;-3.396;2023-04-28T03:32:17;6.28;;;3.40;;
46757;SDS011;32509;47.750;-3.396;2023-04-28T03:34:43;3.83;;;3.58;;
46757;SDS011;32509;47.750;-3.396;2023-04-28T03:37:08;3.70;;;3.40;;
46757;SDS011;32509;47.750;-3.396;2023-04-28T03:39:34;4.20;;;3.80;;
46757;SDS011;32509;47.750;-3.396;2023-04-28T03:42:00;5.82;;;4.03;;
46757;SDS011;32509;47.750;-3.396;2023-04-28T03:44:26;4.40;;;4.00;;
46757;SDS011;32509;47.750;-3.396;2023-04-28T03:46:52;4.85;;;4.45;;
46757;SDS011;32509;47.750;-3.396;2023-04-28T03:49:18;9.23;;;4.88;;
46757;SDS011;32509;47.750;-3.396;2023-04-28T03:51:44;6.82;;;4.57;;
46757;SDS011;32509;47.750;-3.396;2023-04-28T03:54:09;7.10;;;6.40;;
46757;SDS011;32509;47.750;-3.396;2023-04-28T03:56:36;5.90;;;4.30;;
46757;SDS011;32509;47.750;-3.396;2023-04-28T03:59:02;10.45;;;5.95;;
46757;SDS011;32509;47.750;-3.396;2023-04-28T04:01:27;8.02;;;5.70;;
46757;SDS011;32509;47.750;-3.396;2023-04-28T04:03:53;10.90;;;7.18;;
46757;SDS011;32509;47.750;-3.396;2023-04-28T04:06:20;7.15;;;5.30;;
46757;SDS011;32509;47.750;-3.396;2023-04-28T04:08:46;6.18;;;4.15;;
46757;SDS011;32509;47.750;-3.396;2023-04-28T04:11:12;12.38;;;4.93;;
46757;SDS011;32509;47.750;-3.396;2023-04-28T04:13:38;8.32;;;4.68;;
46757;SDS011;32509;47.750;-3.396;2023-04-28T04:16:03;5.13;;;4.57;;
46757;SDS011;32509;47.750;-3.396;2023-04-28T04:18:30;6.50;;;4.68;;
46757;SDS011;32509;47.750;-3.396;2023-04-28T04:20:55;6.47;;;5.68;;
46757;SDS011;32509;47.750;-3.396;2023-04-28T04:23:21;8.30;;;5.47;;
46757;SDS011;32509;47.750;-3.396;2023-04-28T04:25:50;5.60;;;4.65;;
46757;SDS011;32509;47.750;-3.396;2023-04-28T04:28:16;6.18;;;4.70;;
46757;SDS011;32509;47.750;-3.396;2023-04-28T04:30:42;5.13;;;4.50;;
46757;SDS011;32509;47.750;-3.396;2023-04-28T04:33:08;5.22;;;4.40;;
46757;SDS011;32509;47.750;-3.396;2023-04-28T04:35:34;11.65;;;3.95;;
46757;SDS011;32509;47.750;-3.396;2023-04-28T04:38:01;3.88;;;3.50;;
46757;SDS011;32509;47.750;-3.396;2023-04-28T04:40:27;8.77;;;3.50;;
46757;SDS011;32509;47.750;-3.396;2023-04-28T04:42:53;6.53;;;3.80;;
46757;SDS011;32509;47.750;-3.396;2023-04-28T04:45:19;10.80;;;4.95;;
46757;SDS011;32509;47.750;-3.396;2023-04-28T04:47:45;6.97;;;4.18;;
46757;SDS011;32509;47.750;-3.396;2023-04-28T04:50:11;6.18;;;3.85;;
46757;SDS011;32509;47.750;-3.396;2023-04-28T04:52:37;6.35;;;4.50;;
46757;SDS011;32509;47.750;-3.396;2023-04-28T04:55:03;5.57;;;4.88;;
46757;SDS011;32509;47.750;-3.396;2023-04-28T04:57:30;15.95;;;6.28;;
46757;SDS011;32509;47.750;-3.396;2023-04-28T04:59:55;6.50;;;4.00;;
46757;SDS011;32509;47.750;-3.396;2023-04-28T05:02:21;10.40;;;4.10;;
46757;SDS011;32509;47.750;-3.396;2023-04-28T05:04:47;8.68;;;5.00;;
46757;SDS011;32509;47.750;-3.396;2023-04-28T05:07:12;6.20;;;4.18;;
46757;SDS011;32509;47.750;-3.396;2023-04-28T05:09:38;5.82;;;4.40;;
46757;SDS011;32509;47.750;-3.396;2023-04-28T05:12:04;7.43;;;4.45;;
46757;SDS011;32509;47.750;-3.396;2023-04-28T05:14:30;5.35;;;4.50;;
46757;SDS011;32509;47.750;-3.396;2023-04-28T05:16:56;5.97;;;4.25;;
46757;SDS011;32509;47.750;-3.396;2023-04-28T05:19:22;6.70;;;4.82;;
46757;SDS011;32509;47.750;-3.396;2023-04-28T05:21:48;7.80;;;4.53;;
46757;SDS011;32509;47.750;-3.396;2023-04-28T05:24:16;5.97;;;4.53;;
46757;SDS011;32509;47.750;-3.396;2023-04-28T05:26:42;7.40;;;4.55;;
46757;SDS011;32509;47.750;-3.396;2023-04-28T05:29:08;6.20;;;4.00;;
46757;SDS011;32509;47.750;-3.396;2023-04-28T05:31:34;12.10;;;6.18;;
46757;SDS011;32509;47.750;-3.396;2023-04-28T05:33:59;4.95;;;4.45;;
46757;SDS011;32509;47.750;-3.396;2023-04-28T05:36:25;5.25;;;4.63;;
46757;SDS011;32509;47.750;-3.396;2023-04-28T05:38:51;5.22;;;4.72;;
46757;SDS011;32509;47.750;-3.396;2023-04-28T05:41:17;7.60;;;4.50;;
46757;SDS011;32509;47.750;-3.396;2023-04-28T05:43:43;6.15;;;5.03;;
46757;SDS011;32509;47.750;-3.396;2023-04-28T05:46:10;5.78;;;4.88;;
46757;SDS011;32509;47.750;-3.396;2023-04-28T05:48:36;7.68;;;5.57;;
46757;SDS011;32509;47.750;-3.396;2023-04-28T05:51:01;7.00;;;5.40;;
46757;SDS011;32509;47.750;-3.396;2023-04-28T05:53:27;4.13;;;3.75;;
46757;SDS011;32509;47.750;-3.396;2023-04-28T05:55:53;4.10;;;3.72;;
46757;SDS011;32509;47.750;-3.396;2023-04-28T05:58:19;6.47;;;5.07;;
46757;SDS011;32509;47.750;-3.396;2023-04-28T06:00:45;5.25;;;4.75;;
46757;SDS011;32509;47.750;-3.396;2023-04-28T06:03:10;5.95;;;5.28;;
46757;SDS011;32509;47.750;-3.396;2023-04-28T06:05:38;5.97;;;5.30;;
46757;SDS011;32509;47.750;-3.396;2023-04-28T06:08:04;10.65;;;7.13;;
46757;SDS011;32509;47.750;-3.396;2023-04-28T06:10:31;7.22;;;5.70;;
46757;SDS011;32509;47.750;-3.396;2023-04-28T06:12:57;5.25;;;4.75;;
46757;SDS011;32509;47.750;-3.396;2023-04-28T06:15:23;6.07;;;5.22;;
46757;SDS011;32509;47.750;-3.396;2023-04-28T06:17:49;7.30;;;6.22;;
46757;SDS011;32509;47.750;-3.396;2023-04-28T06:20:15;7.80;;;7.00;;
46757;SDS011;32509;47.750;-3.396;2023-04-28T06:22:41;7.20;;;5.50;;
46757;SDS011;32509;47.750;-3.396;2023-04-28T06:25:07;6.70;;;6.07;;
46757;SDS011;32509;47.750;-3.396;2023-04-28T06:27:33;11.00;;;5.50;;
46757;SDS011;32509;47.750;-3.396;2023-04-28T06:29:59;5.95;;;4.93;;
46757;SDS011;32509;47.750;-3.396;2023-04-28T06:32:25;13.07;;;6.05;;
46757;SDS011;32509;47.750;-3.396;2023-04-28T06:34:50;4.68;;;4.28;;
46757;SDS011;32509;47.750;-3.396;2023-04-28T06:37:16;4.78;;;4.38;;
46757;SDS011;32509;47.750;-3.396;2023-04-28T06:39:43;5.18;;;4.55;;
46757;SDS011;32509;47.750;-3.396;2023-04-28T06:42:08;6.25;;;4.85;;
46757;SDS011;32509;47.750;-3.396;2023-04-28T06:44:34;5.45;;;4.50;;
46757;SDS011;32509;47.750;-3.396;2023-04-28T06:47:00;5.18;;;4.78;;
46757;SDS011;32509;47.750;-3.396;2023-04-28T06:49:26;4.85;;;4.05;;
46757;SDS011;32509;47.750;-3.396;2023-04-28T06:51:51;6.78;;;5.32;;
46757;SDS011;32509;47.750;-3.396;2023-04-28T06:54:17;6.10;;;4.28;;
46757;SDS011;32509;47.750;-3.396;2023-04-28T06:56:43;5.43;;;5.00;;
46757;SDS011;32509;47.750;-3.396;2023-04-28T06:59:09;5.65;;;5.15;;
46757;SDS011;32509;47.750;-3.396;2023-04-28T07:01:34;6.10;;;5.00;;
46757;SDS011;32509;47.750;-3.396;2023-04-28T07:04:00;8.15;;;5.78;;
46757;SDS011;32509;47.750;-3.396;2023-04-28T07:06:26;6.10;;;5.13;;
46757;SDS011;32509;47.750;-3.396;2023-04-28T07:08:52;4.95;;;4.53;;
46757;SDS011;32509;47.750;-3.396;2023-04-28T07:11:18;6.13;;;4.78;;
46757;SDS011;32509;47.750;-3.396;2023-04-28T07:13:44;4.45;;;4.05;;
46757;SDS011;32509;47.750;-3.396;2023-04-28T07:16:15;6.47;;;4.00;;
46757;SDS011;32509;47.750;-3.396;2023-04-28T07:18:42;8.65;;;4.93;;
46757;SDS011;32509;47.750;-3.396;2023-04-28T07:21:07;4.40;;;4.00;;
46757;SDS011;32509;47.750;-3.396;2023-04-28T07:23:33;3.75;;;3.45;;
46757;SDS011;32509;47.750;-3.396;2023-04-28T07:25:59;3.53;;;3.20;;
46757;SDS011;32509;47.750;-3.396;2023-04-28T07:28:25;5.07;;;4.40;;
46757;SDS011;32509;47.750;-3.396;2023-04-28T07:30:51;4.85;;;4.40;;
46757;SDS011;32509;47.750;-3.396;2023-04-28T07:33:16;4.07;;;3.78;;
46757;SDS011;32509;47.750;-3.396;2023-04-28T07:35:42;6.95;;;3.25;;
46757;SDS011;32509;47.750;-3.396;2023-04-28T07:38:08;4.00;;;3.70;;
46757;SDS011;32509;47.750;-3.396;2023-04-28T07:40:34;3.58;;;3.28;;
46757;SDS011;32509;47.750;-3.396;2023-04-28T07:43:00;4.95;;;4.30;;
46757;SDS011;32509;47.750;-3.396;2023-04-28T07:45:25;6.30;;;4.80;;
46757;SDS011;32509;47.750;-3.396;2023-04-28T07:47:51;6.40;;;3.70;;
46757;SDS011;32509;47.750;-3.396;2023-04-28T07:50:17;5.65;;;4.25;;
46757;SDS011;32509;47.750;-3.396;2023-04-28T07:52:43;6.43;;;4.90;;
46757;SDS011;32509;47.750;-3.396;2023-04-28T07:55:09;5.63;;;4.82;;
46757;SDS011;32509;47.750;-3.396;2023-04-28T07:57:34;5.05;;;4.55;;
46757;SDS011;32509;47.750;-3.396;2023-04-28T08:00:00;5.20;;;4.50;;
46757;SDS011;32509;47.750;-3.396;2023-04-28T08:02:27;6.45;;;3.75;;
46757;SDS011;32509;47.750;-3.396;2023-04-28T08:04:53;4.82;;;3.38;;
46757;SDS011;32509;47.750;-3.396;2023-04-28T08:07:18;5.82;;;3.95;;
46757;SDS011;32509;47.750;-3.396;2023-04-28T08:09:44;4.93;;;4.43;;
46757;SDS011;32509;47.750;-3.396;2023-04-28T08:12:11;6.47;;;4.22;;
46757;SDS011;32509;47.750;-3.396;2023-04-28T08:14:40;6.70;;;4.97;;
46757;SDS011;32509;47.750;-3.396;2023-04-28T08:17:06;5.82;;;5.22;;
46757;SDS011;32509;47.750;-3.396;2023-04-28T08:19:33;6.32;;;4.63;;
46757;SDS011;32509;47.750;-3.396;2023-04-28T08:21:59;4.45;;;4.15;;
46757;SDS011;32509;47.750;-3.396;2023-04-28T08:24:29;5.10;;;3.60;;
46757;SDS011;32509;47.750;-3.396;2023-04-28T08:26:59;3.03;;;2.83;;
46757;SDS011;32509;47.750;-3.396;2023-04-28T08:29:27;3.33;;;3.03;;
46757;SDS011;32509;47.750;-3.396;2023-04-28T08:31:54;2.88;;;2.67;;
46757;SDS011;32509;47.750;-3.396;2023-04-28T08:34:19;2.58;;;2.38;;
46757;SDS011;32509;47.750;-3.396;2023-04-28T08:36:45;3.70;;;3.40;;
46757;SDS011;32509;47.750;-3.396;2023-04-28T08:39:11;2.60;;;2.40;;
46757;SDS011;32509;47.750;-3.396;2023-04-28T08:41:37;3.22;;;3.03;;
46757;SDS011;32509;47.750;-3.396;2023-04-28T08:44:07;2.47;;;2.28;;
46757;SDS011;32509;47.750;-3.396;2023-04-28T08:46:33;4.90;;;4.25;;
46757;SDS011;32509;47.750;-3.396;2023-04-28T08:49:02;8.18;;;3.75;;
46757;SDS011;32509;47.750;-3.396;2023-04-28T08:51:34;3.88;;;3.58;;
46757;SDS011;32509;47.750;-3.396;2023-04-28T08:54:02;5.13;;;4.00;;
46757;SDS011;32509;47.750;-3.396;2023-04-28T08:56:32;3.70;;;3.40;;
46757;SDS011;32509;47.750;-3.396;2023-04-28T08:59:02;4.70;;;4.28;;
46757;SDS011;32509;47.750;-3.396;2023-04-28T09:01:29;4.93;;;4.38;;
46757;SDS011;32509;47.750;-3.396;2023-04-28T09:03:55;5.90;;;4.70;;
46757;SDS011;32509;47.750;-3.396;2023-04-28T09:06:21;4.13;;;3.85;;
46757;SDS011;32509;47.750;-3.396;2023-04-28T09:08:47;4.60;;;3.92;;
46757;SDS011;32509;47.750;-3.396;2023-04-28T09:11:13;5.45;;;4.78;;
46757;SDS011;32509;47.750;-3.396;2023-04-28T09:13:40;5.30;;;4.13;;
46757;SDS011;32509;47.750;-3.396;2023-04-28T09:16:06;4.93;;;4.53;;
46757;SDS011;32509;47.750;-3.396;2023-04-28T09:18:32;5.72;;;5.03;;
46757;SDS011;32509;47.750;-3.396;2023-04-28T09:21:16;5.60;;;5.10;;
46757;SDS011;32509;47.750;-3.396;2023-04-28T09:23:48;7.68;;;5.25;;
46757;SDS011;32509;47.750;-3.396;2023-04-28T09:28:40;5.30;;;4.65;;
46757;SDS011;32509;47.750;-3.396;2023-04-28T09:31:06;4.70;;;4.25;;
46757;SDS011;32509;47.750;-3.396;2023-04-28T09:34:00;4.07;;;3.78;;
46757;SDS011;32509;47.750;-3.396;2023-04-28T09:36:26;5.15;;;4.65;;
46757;SDS011;32509;47.750;-3.396;2023-04-28T09:38:59;4.60;;;4.25;;
46757;SDS011;32509;47.750;-3.396;2023-04-28T09:41:58;5.45;;;4.95;;
46757;SDS011;32509;47.750;-3.396;2023-04-28T09:44:17;5.43;;;4.30;;
46757;SDS011;32509;47.750;-3.396;2023-04-28T09:46:45;4.78;;;4.43;;
46757;SDS011;32509;47.750;-3.396;2023-04-28T09:49:12;6.35;;;4.68;;
46757;SDS011;32509;47.750;-3.396;2023-04-28T09:51:38;4.57;;;4.28;;
46757;SDS011;32509;47.750;-3.396;2023-04-28T09:54:04;7.50;;;6.45;;
46757;SDS011;32509;47.750;-3.396;2023-04-28T09:56:32;5.22;;;4.72;;
46757;SDS011;32509;47.750;-3.396;2023-04-28T09:58:59;5.03;;;4.53;;
46757;SDS011;32509;47.750;-3.396;2023-04-28T10:01:35;5.45;;;4.95;;
46757;SDS011;32509;47.750;-3.396;2023-04-28T10:04:04;6.70;;;4.50;;
46757;SDS011;32509;47.750;-3.396;2023-04-28T10:06:32;4.72;;;4.30;;
46757;SDS011;32509;47.750;-3.396;2023-04-28T10:09:02;5.53;;;4.88;;
46757;SDS011;32509;47.750;-3.396;2023-04-28T10:11:29;5.22;;;4.63;;
46757;SDS011;32509;47.750;-3.396;2023-04-28T10:13:55;4.60;;;4.20;;
46757;SDS011;32509;47.750;-3.396;2023-04-28T10:16:21;5.68;;;4.45;;
46757;SDS011;32509;47.750;-3.396;2023-04-28T10:18:48;5.35;;;4.63;;
46757;SDS011;32509;47.750;-3.396;2023-04-28T10:21:16;3.70;;;3.35;;
46757;SDS011;32509;47.750;-3.396;2023-04-28T10:23:58;7.32;;;4.40;;
46757;SDS011;32509;47.750;-3.396;2023-04-28T10:26:56;5.18;;;4.38;;
46757;SDS011;32509;47.750;-3.396;2023-04-28T10:29:33;4.38;;;4.03;;
46757;SDS011;32509;47.750;-3.396;2023-04-28T10:32:19;6.40;;;4.20;;
46757;SDS011;32509;47.750;-3.396;2023-04-28T10:34:47;5.30;;;4.90;;
46757;SDS011;32509;47.750;-3.396;2023-04-28T10:37:13;4.90;;;4.40;;
46757;SDS011;32509;47.750;-3.396;2023-04-28T10:39:40;3.85;;;3.60;;
46757;SDS011;32509;47.750;-3.396;2023-04-28T10:42:52;4.63;;;4.22;;
46757;SDS011;32509;47.750;-3.396;2023-04-28T10:45:15;3.65;;;3.35;;
46757;SDS011;32509;47.750;-3.396;2023-04-28T10:48:12;5.43;;;4.97;;
46757;SDS011;32509;47.750;-3.396;2023-04-28T10:56:08;4.55;;;4.13;;
46757;SDS011;32509;47.750;-3.396;2023-04-28T10:58:36;5.82;;;5.30;;
46757;SDS011;32509;47.750;-3.396;2023-04-28T11:06:18;3.75;;;3.45;;
46757;SDS011;32509;47.750;-3.396;2023-04-28T11:11:18;5.13;;;4.45;;
46757;SDS011;32509;47.750;-3.396;2023-04-28T11:13:46;5.30;;;4.90;;
46757;SDS011;32509;47.750;-3.396;2023-04-28T11:16:13;6.30;;;5.45;;
46757;SDS011;32509;47.750;-3.396;2023-04-28T11:18:48;4.70;;;4.20;;
46757;SDS011;32509;47.750;-3.396;2023-04-28T11:21:27;5.15;;;4.10;;
46757;SDS011;32509;47.750;-3.396;2023-04-28T11:23:53;5.25;;;4.75;;
46757;SDS011;32509;47.750;-3.396;2023-04-28T11:26:21;10.75;;;5.40;;
46757;SDS011;32509;47.750;-3.396;2023-04-28T11:28:51;5.72;;;5.03;;
46757;SDS011;32509;47.750;-3.396;2023-04-28T11:31:19;5.05;;;4.55;;
46757;SDS011;32509;47.750;-3.396;2023-04-28T11:33:49;4.95;;;4.07;;
46757;SDS011;32509;47.750;-3.396;2023-04-28T11:39:14;6.05;;;5.20;;
46757;SDS011;32509;47.750;-3.396;2023-04-28T11:41:40;6.20;;;5.60;;
46757;SDS011;32509;47.750;-3.396;2023-04-28T11:44:12;6.55;;;4.13;;
46757;SDS011;32509;47.750;-3.396;2023-04-28T11:46:45;5.30;;;4.75;;
46757;SDS011;32509;47.750;-3.396;2023-04-28T11:49:42;4.60;;;4.25;;
46757;SDS011;32509;47.750;-3.396;2023-04-28T11:52:09;4.38;;;4.03;;
46757;SDS011;32509;47.750;-3.396;2023-04-28T11:54:36;4.70;;;4.13;;
46757;SDS011;32509;47.750;-3.396;2023-04-28T11:57:03;4.68;;;4.28;;
46757;SDS011;32509;47.750;-3.396;2023-04-28T11:59:30;4.82;;;4.47;;
46757;SDS011;32509;47.750;-3.396;2023-04-28T12:02:01;5.00;;;3.92;;
46757;SDS011;32509;47.750;-3.396;2023-04-28T12:09:29;4.35;;;3.53;;
46757;SDS011;32509;47.750;-3.396;2023-04-28T12:11:56;4.28;;;3.08;;
46757;SDS011;32509;47.750;-3.396;2023-04-28T12:14:23;3.47;;;3.17;;
46757;SDS011;32509;47.750;-3.396;2023-04-28T12:16:50;5.30;;;2.90;;
46757;SDS011;32509;47.750;-3.396;2023-04-28T12:19:16;2.88;;;2.70;;
46757;SDS011;32509;47.750;-3.396;2023-04-28T12:21:56;3.60;;;2.78;;
46757;SDS011;32509;47.750;-3.396;2023-04-28T12:24:29;2.78;;;2.60;;
46757;SDS011;32509;47.750;-3.396;2023-04-28T12:27:15;5.55;;;3.15;;
46757;SDS011;32509;47.750;-3.396;2023-04-28T12:29:45;3.08;;;2.88;;
46757;SDS011;32509;47.750;-3.396;2023-04-28T12:32:12;2.75;;;2.55;;
46757;SDS011;32509;47.750;-3.396;2023-04-28T12:34:38;4.07;;;2.85;;
46757;SDS011;32509;47.750;-3.396;2023-04-28T12:37:06;4.45;;;4.13;;
46757;SDS011;32509;47.750;-3.396;2023-04-28T12:39:32;6.28;;;3.17;;
46757;SDS011;32509;47.750;-3.396;2023-04-28T12:42:03;6.82;;;3.10;;
46757;SDS011;32509;47.750;-3.396;2023-04-28T12:44:32;4.57;;;3.67;;
46757;SDS011;32509;47.750;-3.396;2023-04-28T12:47:00;6.30;;;3.67;;
46757;SDS011;32509;47.750;-3.396;2023-04-28T12:49:33;4.63;;;4.28;;
46757;SDS011;32509;47.750;-3.396;2023-04-28T12:52:00;7.85;;;5.03;;
46757;SDS011;32509;47.750;-3.396;2023-04-28T12:54:26;4.85;;;4.40;;
46757;SDS011;32509;47.750;-3.396;2023-04-28T12:56:52;5.25;;;4.30;;
46757;SDS011;32509;47.750;-3.396;2023-04-28T12:59:21;4.25;;;3.85;;
46757;SDS011;32509;47.750;-3.396;2023-04-28T13:01:47;4.75;;;4.35;;
46757;SDS011;32509;47.750;-3.396;2023-04-28T13:04:15;5.30;;;4.18;;
46757;SDS011;32509;47.750;-3.396;2023-04-28T13:06:41;4.55;;;4.25;;
46757;SDS011;32509;47.750;-3.396;2023-04-28T13:09:11;5.18;;;4.68;;
46757;SDS011;32509;47.750;-3.396;2023-04-28T13:11:38;3.95;;;3.65;;
46757;SDS011;32509;47.750;-3.396;2023-04-28T13:14:05;6.53;;;4.57;;
46757;SDS011;32509;47.750;-3.396;2023-04-28T13:16:31;5.63;;;5.15;;
46757;SDS011;32509;47.750;-3.396;2023-04-28T13:18:58;4.95;;;3.17;;
46757;SDS011;32509;47.750;-3.396;2023-04-28T13:21:25;5.22;;;4.50;;
46757;SDS011;32509;47.750;-3.396;2023-04-28T13:23:52;4.00;;;3.60;;
46757;SDS011;32509;47.750;-3.396;2023-04-28T13:26:20;5.38;;;4.25;;
46757;SDS011;32509;47.750;-3.396;2023-04-28T13:28:47;6.07;;;3.95;;
46757;SDS011;32509;47.750;-3.396;2023-04-28T13:31:13;3.92;;;3.50;;
46757;SDS011;32509;47.750;-3.396;2023-04-28T13:33:39;4.78;;;3.95;;
46757;SDS011;32509;47.750;-3.396;2023-04-28T13:36:05;4.38;;;3.97;;
46757;SDS011;32509;47.750;-3.396;2023-04-28T13:38:32;5.28;;;3.83;;
46757;SDS011;32509;47.750;-3.396;2023-04-28T13:40:58;6.90;;;3.78;;
46757;SDS011;32509;47.750;-3.396;2023-04-28T13:43:25;4.50;;;4.03;;
46757;SDS011;32509;47.750;-3.396;2023-04-28T13:45:51;6.35;;;4.63;;
46757;SDS011;32509;47.750;-3.396;2023-04-28T13:48:17;4.15;;;3.85;;
46757;SDS011;32509;47.750;-3.396;2023-04-28T13:50:43;5.72;;;4.95;;
46757;SDS011;32509;47.750;-3.396;2023-04-28T13:53:09;6.10;;;4.63;;
46757;SDS011;32509;47.750;-3.396;2023-04-28T13:55:35;6.43;;;3.65;;
46757;SDS011;32509;47.750;-3.396;2023-04-28T13:58:01;6.53;;;4.15;;
46757;SDS011;32509;47.750;-3.396;2023-04-28T14:00:29;4.47;;;4.18;;
46757;SDS011;32509;47.750;-3.396;2023-04-28T14:02:56;7.30;;;3.67;;
46757;SDS011;32509;47.750;-3.396;2023-04-28T14:05:22;7.22;;;4.28;;
46757;SDS011;32509;47.750;-3.396;2023-04-28T14:07:48;4.60;;;3.95;;
46757;SDS011;32509;47.750;-3.396;2023-04-28T14:10:14;4.38;;;3.88;;
46757;SDS011;32509;47.750;-3.396;2023-04-28T14:12:40;4.55;;;4.15;;
46757;SDS011;32509;47.750;-3.396;2023-04-28T14:15:06;5.00;;;4.60;;
46757;SDS011;32509;47.750;-3.396;2023-04-28T14:17:32;6.38;;;5.90;;
46757;SDS011;32509;47.750;-3.396;2023-04-28T14:20:02;7.93;;;6.22;;
46757;SDS011;32509;47.750;-3.396;2023-04-28T14:22:28;6.43;;;5.85;;
46757;SDS011;32509;47.750;-3.396;2023-04-28T14:24:57;7.18;;;6.03;;
46757;SDS011;32509;47.750;-3.396;2023-04-28T14:27:22;5.93;;;5.25;;
46757;SDS011;32509;47.750;-3.396;2023-04-28T14:29:48;7.05;;;5.22;;
46757;SDS011;32509;47.750;-3.396;2023-04-28T14:32:15;7.18;;;5.15;;
46757;SDS011;32509;47.750;-3.396;2023-04-28T14:34:45;4.88;;;4.45;;
46757;SDS011;32509;47.750;-3.396;2023-04-28T14:37:12;7.28;;;4.70;;
46757;SDS011;32509;47.750;-3.396;2023-04-28T14:39:38;5.95;;;5.45;;
46757;SDS011;32509;47.750;-3.396;2023-04-28T14:42:04;6.65;;;6.05;;
46757;SDS011;32509;47.750;-3.396;2023-04-28T14:44:30;6.40;;;5.80;;
46757;SDS011;32509;47.750;-3.396;2023-04-28T14:46:56;6.60;;;5.85;;
46757;SDS011;32509;47.750;-3.396;2023-04-28T14:49:22;6.32;;;5.72;;
46757;SDS011;32509;47.750;-3.396;2023-04-28T14:51:48;6.85;;;6.22;;
46757;SDS011;32509;47.750;-3.396;2023-04-28T14:54:14;8.05;;;5.20;;
46757;SDS011;32509;47.750;-3.396;2023-04-28T14:56:40;6.20;;;5.38;;
46757;SDS011;32509;47.750;-3.396;2023-04-28T14:59:06;9.25;;;5.97;;